sensor_id;sensor_type;location;lat;lon;timestamp;temperature;humidity
31725;DHT22;18306;40.960;14.836;2022-10-30T00:00:30;11.60;99.90
31725;DHT22;18306;40.960;14.836;2022-10-30T00:02:58;11.70;99.90
31725;DHT22;18306;40.960;14.836;2022-10-30T00:05:25;11.70;99.90
31725;DHT22;18306;40.960;14.836;2022-10-30T00:07:54;11.70;99.90
31725;DHT22;18306;40.960;14.836;2022-10-30T00:10:22;11.60;99.90
31725;DHT22;18306;40.960;14.836;2022-10-30T00:12:50;11.70;99.90
31725;DHT22;18306;40.960;14.836;2022-10-30T00:15:17;11.70;99.90
31725;DHT22;18306;40.960;14.836;2022-10-30T00:17:44;11.60;99.90
31725;DHT22;18306;40.960;14.836;2022-10-30T00:20:11;11.60;99.90
31725;DHT22;18306;40.960;14.836;2022-10-30T00:22:38;11.60;99.90
31725;DHT22;18306;40.960;14.836;2022-10-30T00:25:05;11.60;99.90
31725;DHT22;18306;40.960;14.836;2022-10-30T00:27:32;11.60;99.90
31725;DHT22;18306;40.960;14.836;2022-10-30T00:29:59;11.60;99.90
31725;DHT22;18306;40.960;14.836;2022-10-30T00:32:27;11.50;99.90
31725;DHT22;18306;40.960;14.836;2022-10-30T00:34:54;11.40;99.90
31725;DHT22;18306;40.960;14.836;2022-10-30T00:37:21;11.40;99.90
31725;DHT22;18306;40.960;14.836;2022-10-30T00:39:47;11.40;99.90
31725;DHT22;18306;40.960;14.836;2022-10-30T00:42:16;11.40;99.90
31725;DHT22;18306;40.960;14.836;2022-10-30T00:47:43;11.40;99.90
31725;DHT22;18306;40.960;14.836;2022-10-30T00:50:27;11.40;99.90
31725;DHT22;18306;40.960;14.836;2022-10-30T00:55:35;11.30;99.90
31725;DHT22;18306;40.960;14.836;2022-10-30T00:58:08;11.30;99.90
31725;DHT22;18306;40.960;14.836;2022-10-30T01:00:36;11.20;99.90
31725;DHT22;18306;40.960;14.836;2022-10-30T01:03:04;11.30;99.90
31725;DHT22;18306;40.960;14.836;2022-10-30T01:05:32;11.20;99.90
31725;DHT22;18306;40.960;14.836;2022-10-30T01:08:01;11.20;99.90
31725;DHT22;18306;40.960;14.836;2022-10-30T01:10:28;11.10;99.90
31725;DHT22;18306;40.960;14.836;2022-10-30T01:12:55;11.10;99.90
31725;DHT22;18306;40.960;14.836;2022-10-30T01:15:32;11.10;99.90
31725;DHT22;18306;40.960;14.836;2022-10-30T01:18:26;11.10;99.90
31725;DHT22;18306;40.960;14.836;2022-10-30T01:23:48;11.10;99.90
31725;DHT22;18306;40.960;14.836;2022-10-30T01:26:47;11.10;99.90
31725;DHT22;18306;40.960;14.836;2022-10-30T01:35:13;11.00;99.90
31725;DHT22;18306;40.960;14.836;2022-10-30T01:40:20;10.90;99.90
31725;DHT22;18306;40.960;14.836;2022-10-30T01:42:56;10.90;99.90
31725;DHT22;18306;40.960;14.836;2022-10-30T01:45:44;10.90;99.90
31725;DHT22;18306;40.960;14.836;2022-10-30T01:48:28;10.90;99.90
31725;DHT22;18306;40.960;14.836;2022-10-30T01:53:45;10.90;99.90
31725;DHT22;18306;40.960;14.836;2022-10-30T02:01:18;10.90;99.90
31725;DHT22;18306;40.960;14.836;2022-10-30T02:03:46;10.90;99.90
31725;DHT22;18306;40.960;14.836;2022-10-30T02:06:14;10.80;99.90
31725;DHT22;18306;40.960;14.836;2022-10-30T02:08:41;10.90;99.90
31725;DHT22;18306;40.960;14.836;2022-10-30T02:11:09;10.70;99.90
31725;DHT22;18306;40.960;14.836;2022-10-30T02:13:40;10.70;99.90
31725;DHT22;18306;40.960;14.836;2022-10-30T02:16:09;10.70;99.90
31725;DHT22;18306;40.960;14.836;2022-10-30T02:18:36;10.70;99.90
31725;DHT22;18306;40.960;14.836;2022-10-30T02:21:03;10.60;99.90
31725;DHT22;18306;40.960;14.836;2022-10-30T02:23:30;10.60;99.90
31725;DHT22;18306;40.960;14.836;2022-10-30T02:25:58;10.60;99.90
31725;DHT22;18306;40.960;14.836;2022-10-30T02:28:27;10.70;99.90
31725;DHT22;18306;40.960;14.836;2022-10-30T02:30:54;10.70;99.90
31725;DHT22;18306;40.960;14.836;2022-10-30T02:33:21;10.60;99.90
31725;DHT22;18306;40.960;14.836;2022-10-30T02:35:50;10.60;99.90
31725;DHT22;18306;40.960;14.836;2022-10-30T02:38:17;10.60;99.90
31725;DHT22;18306;40.960;14.836;2022-10-30T02:40:45;10.60;99.90
31725;DHT22;18306;40.960;14.836;2022-10-30T02:43:12;10.40;99.90
31725;DHT22;18306;40.960;14.836;2022-10-30T02:45:39;10.40;99.90
31725;DHT22;18306;40.960;14.836;2022-10-30T02:48:06;10.40;99.90
31725;DHT22;18306;40.960;14.836;2022-10-30T02:50:33;10.30;99.90
31725;DHT22;18306;40.960;14.836;2022-10-30T02:53:00;10.30;99.90
31725;DHT22;18306;40.960;14.836;2022-10-30T02:55:27;10.40;99.90
31725;DHT22;18306;40.960;14.836;2022-10-30T02:57:54;10.40;99.90
31725;DHT22;18306;40.960;14.836;2022-10-30T03:00:22;10.40;99.90
31725;DHT22;18306;40.960;14.836;2022-10-30T03:02:54;10.40;99.90
31725;DHT22;18306;40.960;14.836;2022-10-30T03:05:22;10.30;99.90
31725;DHT22;18306;40.960;14.836;2022-10-30T03:07:49;10.40;99.90
31725;DHT22;18306;40.960;14.836;2022-10-30T03:10:17;10.40;99.90
31725;DHT22;18306;40.960;14.836;2022-10-30T03:12:44;10.50;99.90
31725;DHT22;18306;40.960;14.836;2022-10-30T03:15:12;10.30;99.90
31725;DHT22;18306;40.960;14.836;2022-10-30T03:17:40;10.30;99.90
31725;DHT22;18306;40.960;14.836;2022-10-30T03:20:11;10.30;99.90
31725;DHT22;18306;40.960;14.836;2022-10-30T03:22:38;10.20;99.90
31725;DHT22;18306;40.960;14.836;2022-10-30T03:25:05;10.20;99.90
31725;DHT22;18306;40.960;14.836;2022-10-30T03:27:33;10.20;99.90
31725;DHT22;18306;40.960;14.836;2022-10-30T03:30:00;10.20;99.90
31725;DHT22;18306;40.960;14.836;2022-10-30T03:32:29;10.20;99.90
31725;DHT22;18306;40.960;14.836;2022-10-30T03:34:56;10.30;99.90
31725;DHT22;18306;40.960;14.836;2022-10-30T03:37:23;10.30;99.90
31725;DHT22;18306;40.960;14.836;2022-10-30T03:39:50;10.30;99.90
31725;DHT22;18306;40.960;14.836;2022-10-30T03:42:21;10.20;99.90
31725;DHT22;18306;40.960;14.836;2022-10-30T03:44:50;10.20;99.90
31725;DHT22;18306;40.960;14.836;2022-10-30T03:47:17;10.10;99.90
31725;DHT22;18306;40.960;14.836;2022-10-30T03:49:45;10.10;99.90
31725;DHT22;18306;40.960;14.836;2022-10-30T03:52:17;10.10;99.90
31725;DHT22;18306;40.960;14.836;2022-10-30T03:54:44;10.20;99.90
31725;DHT22;18306;40.960;14.836;2022-10-30T03:57:14;10.20;99.90
31725;DHT22;18306;40.960;14.836;2022-10-30T03:59:58;10.10;99.90
31725;DHT22;18306;40.960;14.836;2022-10-30T04:02:50;10.10;99.90
31725;DHT22;18306;40.960;14.836;2022-10-30T04:05:19;10.10;99.90
31725;DHT22;18306;40.960;14.836;2022-10-30T04:07:48;10.10;99.90
31725;DHT22;18306;40.960;14.836;2022-10-30T04:10:15;10.00;99.90
31725;DHT22;18306;40.960;14.836;2022-10-30T04:12:43;10.00;99.90
31725;DHT22;18306;40.960;14.836;2022-10-30T04:15:10;10.00;99.90
31725;DHT22;18306;40.960;14.836;2022-10-30T04:17:37;10.00;99.90
31725;DHT22;18306;40.960;14.836;2022-10-30T04:20:05;10.00;99.90
31725;DHT22;18306;40.960;14.836;2022-10-30T04:22:32;10.00;99.90
31725;DHT22;18306;40.960;14.836;2022-10-30T04:24:59;10.00;99.90
31725;DHT22;18306;40.960;14.836;2022-10-30T04:27:29;10.00;99.90
31725;DHT22;18306;40.960;14.836;2022-10-30T04:29:57;10.00;99.90
31725;DHT22;18306;40.960;14.836;2022-10-30T04:32:24;9.90;99.90
31725;DHT22;18306;40.960;14.836;2022-10-30T04:34:51;9.90;99.90
31725;DHT22;18306;40.960;14.836;2022-10-30T04:37:19;9.80;99.90
31725;DHT22;18306;40.960;14.836;2022-10-30T04:39:46;9.80;99.90
31725;DHT22;18306;40.960;14.836;2022-10-30T04:42:19;9.80;99.90
31725;DHT22;18306;40.960;14.836;2022-10-30T04:44:46;9.80;99.90
31725;DHT22;18306;40.960;14.836;2022-10-30T04:47:13;9.80;99.90
31725;DHT22;18306;40.960;14.836;2022-10-30T04:49:43;9.80;99.90
31725;DHT22;18306;40.960;14.836;2022-10-30T04:52:11;9.80;99.90
31725;DHT22;18306;40.960;14.836;2022-10-30T04:54:37;9.80;99.90
31725;DHT22;18306;40.960;14.836;2022-10-30T04:57:05;9.80;99.90
31725;DHT22;18306;40.960;14.836;2022-10-30T04:59:32;9.80;99.90
31725;DHT22;18306;40.960;14.836;2022-10-30T05:02:00;9.70;99.90
31725;DHT22;18306;40.960;14.836;2022-10-30T05:04:27;9.80;99.90
31725;DHT22;18306;40.960;14.836;2022-10-30T05:06:54;9.80;99.90
31725;DHT22;18306;40.960;14.836;2022-10-30T05:09:21;9.80;99.90
31725;DHT22;18306;40.960;14.836;2022-10-30T05:11:48;9.70;99.90
31725;DHT22;18306;40.960;14.836;2022-10-30T05:14:15;9.70;99.90
31725;DHT22;18306;40.960;14.836;2022-10-30T05:16:44;9.70;99.90
31725;DHT22;18306;40.960;14.836;2022-10-30T05:19:10;9.70;99.90
31725;DHT22;18306;40.960;14.836;2022-10-30T05:21:41;9.70;99.90
31725;DHT22;18306;40.960;14.836;2022-10-30T05:24:08;9.70;99.90
31725;DHT22;18306;40.960;14.836;2022-10-30T05:26:42;9.70;99.90
31725;DHT22;18306;40.960;14.836;2022-10-30T05:29:09;9.70;99.90
31725;DHT22;18306;40.960;14.836;2022-10-30T05:31:36;9.70;99.90
31725;DHT22;18306;40.960;14.836;2022-10-30T05:34:03;9.60;99.90
31725;DHT22;18306;40.960;14.836;2022-10-30T05:36:30;9.60;99.90
31725;DHT22;18306;40.960;14.836;2022-10-30T05:38:57;9.70;99.90
31725;DHT22;18306;40.960;14.836;2022-10-30T05:41:32;9.70;99.90
31725;DHT22;18306;40.960;14.836;2022-10-30T05:43:59;9.70;99.90
31725;DHT22;18306;40.960;14.836;2022-10-30T05:46:26;9.70;99.90
31725;DHT22;18306;40.960;14.836;2022-10-30T05:48:55;9.70;99.90
31725;DHT22;18306;40.960;14.836;2022-10-30T05:51:23;9.70;99.90
31725;DHT22;18306;40.960;14.836;2022-10-30T05:53:54;9.60;99.90
31725;DHT22;18306;40.960;14.836;2022-10-30T05:56:25;9.50;99.90
31725;DHT22;18306;40.960;14.836;2022-10-30T05:58:55;9.50;99.90
31725;DHT22;18306;40.960;14.836;2022-10-30T06:01:22;9.50;99.90
31725;DHT22;18306;40.960;14.836;2022-10-30T06:03:53;9.60;99.90
31725;DHT22;18306;40.960;14.836;2022-10-30T06:06:20;9.60;99.90
31725;DHT22;18306;40.960;14.836;2022-10-30T06:08:47;9.70;99.90
31725;DHT22;18306;40.960;14.836;2022-10-30T06:11:34;9.60;99.90
31725;DHT22;18306;40.960;14.836;2022-10-30T06:14:02;9.50;99.90
31725;DHT22;18306;40.960;14.836;2022-10-30T06:16:44;9.60;99.90
31725;DHT22;18306;40.960;14.836;2022-10-30T06:19:19;9.70;99.90
31725;DHT22;18306;40.960;14.836;2022-10-30T06:21:49;9.60;99.90
31725;DHT22;18306;40.960;14.836;2022-10-30T06:24:37;9.60;99.90
31725;DHT22;18306;40.960;14.836;2022-10-30T06:27:29;9.60;99.90
31725;DHT22;18306;40.960;14.836;2022-10-30T06:29:56;9.70;99.90
31725;DHT22;18306;40.960;14.836;2022-10-30T06:32:23;9.80;99.90
31725;DHT22;18306;40.960;14.836;2022-10-30T06:34:50;9.80;99.90
31725;DHT22;18306;40.960;14.836;2022-10-30T06:37:18;9.90;99.90
31725;DHT22;18306;40.960;14.836;2022-10-30T06:39:45;10.00;99.90
31725;DHT22;18306;40.960;14.836;2022-10-30T06:42:31;10.10;99.90
31725;DHT22;18306;40.960;14.836;2022-10-30T06:45:22;10.10;99.90
31725;DHT22;18306;40.960;14.836;2022-10-30T06:47:49;10.10;99.90
31725;DHT22;18306;40.960;14.836;2022-10-30T06:50:19;10.10;99.90
31725;DHT22;18306;40.960;14.836;2022-10-30T06:52:46;10.20;99.90
31725;DHT22;18306;40.960;14.836;2022-10-30T06:55:14;10.40;99.90
31725;DHT22;18306;40.960;14.836;2022-10-30T06:58:09;10.50;99.90
31725;DHT22;18306;40.960;14.836;2022-10-30T07:00:51;10.50;99.90
31725;DHT22;18306;40.960;14.836;2022-10-30T07:03:41;10.60;99.90
31725;DHT22;18306;40.960;14.836;2022-10-30T07:06:08;10.80;99.90
31725;DHT22;18306;40.960;14.836;2022-10-30T07:08:35;10.90;99.90
31725;DHT22;18306;40.960;14.836;2022-10-30T07:11:02;11.10;99.90
31725;DHT22;18306;40.960;14.836;2022-10-30T07:13:32;11.40;99.90
31725;DHT22;18306;40.960;14.836;2022-10-30T07:16:07;12.10;99.90
31725;DHT22;18306;40.960;14.836;2022-10-30T07:18:38;12.10;99.90
31725;DHT22;18306;40.960;14.836;2022-10-30T07:21:05;12.10;99.90
31725;DHT22;18306;40.960;14.836;2022-10-30T07:23:32;12.10;99.90
31725;DHT22;18306;40.960;14.836;2022-10-30T07:26:20;12.20;99.90
31725;DHT22;18306;40.960;14.836;2022-10-30T07:28:50;12.30;99.90
31725;DHT22;18306;40.960;14.836;2022-10-30T07:31:22;12.20;99.90
31725;DHT22;18306;40.960;14.836;2022-10-30T07:34:11;12.30;99.90
31725;DHT22;18306;40.960;14.836;2022-10-30T07:36:57;12.50;99.90
31725;DHT22;18306;40.960;14.836;2022-10-30T07:39:50;12.50;99.90
31725;DHT22;18306;40.960;14.836;2022-10-30T07:42:43;12.70;99.90
31725;DHT22;18306;40.960;14.836;2022-10-30T07:45:33;12.70;99.90
31725;DHT22;18306;40.960;14.836;2022-10-30T07:48:20;12.80;99.90
31725;DHT22;18306;40.960;14.836;2022-10-30T07:51:03;12.90;99.90
31725;DHT22;18306;40.960;14.836;2022-10-30T07:53:30;12.90;99.90
31725;DHT22;18306;40.960;14.836;2022-10-30T07:55:58;13.00;99.90
31725;DHT22;18306;40.960;14.836;2022-10-30T07:58:43;13.00;99.90
31725;DHT22;18306;40.960;14.836;2022-10-30T08:01:36;13.00;99.90
31725;DHT22;18306;40.960;14.836;2022-10-30T08:04:24;13.10;99.90
31725;DHT22;18306;40.960;14.836;2022-10-30T08:06:57;13.20;99.90
31725;DHT22;18306;40.960;14.836;2022-10-30T08:09:25;13.20;99.90
31725;DHT22;18306;40.960;14.836;2022-10-30T08:11:52;13.30;99.90
31725;DHT22;18306;40.960;14.836;2022-10-30T08:14:22;13.30;99.90
31725;DHT22;18306;40.960;14.836;2022-10-30T08:16:51;13.40;99.90
31725;DHT22;18306;40.960;14.836;2022-10-30T08:19:18;13.50;99.90
31725;DHT22;18306;40.960;14.836;2022-10-30T08:21:45;13.60;99.90
31725;DHT22;18306;40.960;14.836;2022-10-30T08:24:17;13.70;99.90
31725;DHT22;18306;40.960;14.836;2022-10-30T08:26:49;13.70;99.90
31725;DHT22;18306;40.960;14.836;2022-10-30T08:29:16;13.80;99.90
31725;DHT22;18306;40.960;14.836;2022-10-30T08:31:47;13.90;99.90
31725;DHT22;18306;40.960;14.836;2022-10-30T08:34:23;14.10;99.90
31725;DHT22;18306;40.960;14.836;2022-10-30T08:36:56;14.20;99.90
31725;DHT22;18306;40.960;14.836;2022-10-30T08:39:24;14.30;99.90
31725;DHT22;18306;40.960;14.836;2022-10-30T08:42:14;14.50;99.90
31725;DHT22;18306;40.960;14.836;2022-10-30T08:44:44;14.60;99.90
31725;DHT22;18306;40.960;14.836;2022-10-30T08:47:37;14.60;99.90
31725;DHT22;18306;40.960;14.836;2022-10-30T08:50:06;14.70;99.90
31725;DHT22;18306;40.960;14.836;2022-10-30T08:52:33;14.80;99.90
31725;DHT22;18306;40.960;14.836;2022-10-30T08:55:00;14.90;99.90
31725;DHT22;18306;40.960;14.836;2022-10-30T08:57:35;15.00;99.90
31725;DHT22;18306;40.960;14.836;2022-10-30T09:00:06;15.10;99.90
31725;DHT22;18306;40.960;14.836;2022-10-30T09:02:52;15.10;99.90
31725;DHT22;18306;40.960;14.836;2022-10-30T09:05:38;15.20;99.90
31725;DHT22;18306;40.960;14.836;2022-10-30T09:08:31;15.20;99.90
31725;DHT22;18306;40.960;14.836;2022-10-30T09:11:11;15.30;99.90
31725;DHT22;18306;40.960;14.836;2022-10-30T09:13:40;15.50;99.90
31725;DHT22;18306;40.960;14.836;2022-10-30T09:16:08;15.50;99.90
31725;DHT22;18306;40.960;14.836;2022-10-30T09:18:37;15.70;99.90
31725;DHT22;18306;40.960;14.836;2022-10-30T09:21:05;15.80;99.90
31725;DHT22;18306;40.960;14.836;2022-10-30T09:23:42;15.90;99.90
31725;DHT22;18306;40.960;14.836;2022-10-30T09:26:28;16.10;99.90
31725;DHT22;18306;40.960;14.836;2022-10-30T09:29:02;16.10;99.90
31725;DHT22;18306;40.960;14.836;2022-10-30T09:31:40;16.30;99.90
31725;DHT22;18306;40.960;14.836;2022-10-30T09:34:13;16.40;99.90
31725;DHT22;18306;40.960;14.836;2022-10-30T09:36:43;16.40;99.90
31725;DHT22;18306;40.960;14.836;2022-10-30T09:39:12;16.50;99.90
31725;DHT22;18306;40.960;14.836;2022-10-30T09:53:35;17.10;99.90
31725;DHT22;18306;40.960;14.836;2022-10-30T09:57:03;17.30;99.90
31725;DHT22;18306;40.960;14.836;2022-10-30T10:02:32;17.60;99.90
31725;DHT22;18306;40.960;14.836;2022-10-30T10:05:25;17.80;99.90
31725;DHT22;18306;40.960;14.836;2022-10-30T10:11:53;18.00;99.90
31725;DHT22;18306;40.960;14.836;2022-10-30T10:14:31;18.00;99.90
31725;DHT22;18306;40.960;14.836;2022-10-30T10:17:00;17.90;99.90
31725;DHT22;18306;40.960;14.836;2022-10-30T10:19:35;17.90;99.90
31725;DHT22;18306;40.960;14.836;2022-10-30T10:22:36;18.00;99.90
31725;DHT22;18306;40.960;14.836;2022-10-30T10:25:02;18.10;99.90
31725;DHT22;18306;40.960;14.836;2022-10-30T10:28:06;18.20;99.90
31725;DHT22;18306;40.960;14.836;2022-10-30T10:31:09;18.20;99.90
31725;DHT22;18306;40.960;14.836;2022-10-30T10:33:47;18.30;99.90
31725;DHT22;18306;40.960;14.836;2022-10-30T10:39:02;18.80;99.90
31725;DHT22;18306;40.960;14.836;2022-10-30T10:53:13;18.60;99.90
31725;DHT22;18306;40.960;14.836;2022-10-30T10:55:47;18.80;99.90
31725;DHT22;18306;40.960;14.836;2022-10-30T11:00:56;18.80;99.90
31725;DHT22;18306;40.960;14.836;2022-10-30T11:03:51;18.90;99.90
31725;DHT22;18306;40.960;14.836;2022-10-30T11:06:29;18.80;99.90
31725;DHT22;18306;40.960;14.836;2022-10-30T11:09:12;19.00;99.90
31725;DHT22;18306;40.960;14.836;2022-10-30T11:11:40;18.90;99.90
31725;DHT22;18306;40.960;14.836;2022-10-30T11:14:28;19.10;99.90
31725;DHT22;18306;40.960;14.836;2022-10-30T11:17:16;18.90;99.90
31725;DHT22;18306;40.960;14.836;2022-10-30T11:19:48;18.90;99.90
31725;DHT22;18306;40.960;14.836;2022-10-30T11:22:37;18.90;99.90
31725;DHT22;18306;40.960;14.836;2022-10-30T11:27:48;18.90;99.90
31725;DHT22;18306;40.960;14.836;2022-10-30T11:30:17;18.90;99.90
31725;DHT22;18306;40.960;14.836;2022-10-30T11:32:45;19.20;99.90
31725;DHT22;18306;40.960;14.836;2022-10-30T11:35:14;19.20;99.90
31725;DHT22;18306;40.960;14.836;2022-10-30T11:37:44;19.10;99.90
31725;DHT22;18306;40.960;14.836;2022-10-30T11:42:44;19.30;99.90
31725;DHT22;18306;40.960;14.836;2022-10-30T11:45:16;19.50;99.90
31725;DHT22;18306;40.960;14.836;2022-10-30T11:47:45;19.40;99.90
31725;DHT22;18306;40.960;14.836;2022-10-30T11:50:19;19.30;99.90
31725;DHT22;18306;40.960;14.836;2022-10-30T11:52:48;19.30;99.90
31725;DHT22;18306;40.960;14.836;2022-10-30T11:57:49;19.30;99.90
31725;DHT22;18306;40.960;14.836;2022-10-30T12:00:18;19.30;99.90
31725;DHT22;18306;40.960;14.836;2022-10-30T12:02:50;19.20;99.90
31725;DHT22;18306;40.960;14.836;2022-10-30T12:11:01;19.30;99.90
31725;DHT22;18306;40.960;14.836;2022-10-30T12:13:38;19.40;99.90
31725;DHT22;18306;40.960;14.836;2022-10-30T12:16:16;19.40;99.90
31725;DHT22;18306;40.960;14.836;2022-10-30T12:19:12;19.30;99.90
31725;DHT22;18306;40.960;14.836;2022-10-30T12:21:51;19.50;99.90
31725;DHT22;18306;40.960;14.836;2022-10-30T12:24:30;19.50;99.90
31725;DHT22;18306;40.960;14.836;2022-10-30T12:27:01;19.20;99.90
31725;DHT22;18306;40.960;14.836;2022-10-30T12:30:06;19.50;99.90
31725;DHT22;18306;40.960;14.836;2022-10-30T12:32:55;19.30;99.90
31725;DHT22;18306;40.960;14.836;2022-10-30T12:38:21;19.10;99.90
31725;DHT22;18306;40.960;14.836;2022-10-30T12:40:59;19.20;99.90
31725;DHT22;18306;40.960;14.836;2022-10-30T12:43:33;19.60;99.90
31725;DHT22;18306;40.960;14.836;2022-10-30T12:46:28;19.50;99.90
31725;DHT22;18306;40.960;14.836;2022-10-30T12:49:38;19.40;99.90
31725;DHT22;18306;40.960;14.836;2022-10-30T12:52:21;19.40;99.90
31725;DHT22;18306;40.960;14.836;2022-10-30T12:55:23;19.50;99.90
31725;DHT22;18306;40.960;14.836;2022-10-30T13:04:09;19.30;99.90
31725;DHT22;18306;40.960;14.836;2022-10-30T13:07:19;19.30;99.90
31725;DHT22;18306;40.960;14.836;2022-10-30T13:12:58;19.30;99.90
31725;DHT22;18306;40.960;14.836;2022-10-30T13:15:37;19.50;99.90
31725;DHT22;18306;40.960;14.836;2022-10-30T13:18:25;19.70;99.90
31725;DHT22;18306;40.960;14.836;2022-10-30T13:26:54;19.10;99.90
31725;DHT22;18306;40.960;14.836;2022-10-30T13:29:28;18.90;99.90
31725;DHT22;18306;40.960;14.836;2022-10-30T13:32:22;19.10;99.90
31725;DHT22;18306;40.960;14.836;2022-10-30T13:37:55;19.50;99.90
31725;DHT22;18306;40.960;14.836;2022-10-30T13:43:59;19.40;99.90
31725;DHT22;18306;40.960;14.836;2022-10-30T13:49:29;19.00;99.90
31725;DHT22;18306;40.960;14.836;2022-10-30T13:52:16;18.90;99.90
31725;DHT22;18306;40.960;14.836;2022-10-30T13:55:03;19.00;99.90
31725;DHT22;18306;40.960;14.836;2022-10-30T13:57:35;19.00;99.90
31725;DHT22;18306;40.960;14.836;2022-10-30T14:05:54;18.90;99.90
31725;DHT22;18306;40.960;14.836;2022-10-30T14:08:27;19.00;99.90
31725;DHT22;18306;40.960;14.836;2022-10-30T14:10:57;19.10;99.90
31725;DHT22;18306;40.960;14.836;2022-10-30T14:16:48;19.00;99.90
31725;DHT22;18306;40.960;14.836;2022-10-30T14:19:29;19.00;99.90
31725;DHT22;18306;40.960;14.836;2022-10-30T14:21:56;19.00;99.90
31725;DHT22;18306;40.960;14.836;2022-10-30T14:24:30;19.00;99.90
31725;DHT22;18306;40.960;14.836;2022-10-30T14:32:01;18.70;99.90
31725;DHT22;18306;40.960;14.836;2022-10-30T14:39:55;18.50;99.90
31725;DHT22;18306;40.960;14.836;2022-10-30T14:45:31;18.00;99.90
31725;DHT22;18306;40.960;14.836;2022-10-30T14:48:33;17.80;99.90
31725;DHT22;18306;40.960;14.836;2022-10-30T14:59:23;17.90;99.90
31725;DHT22;18306;40.960;14.836;2022-10-30T15:04:46;17.90;99.90
31725;DHT22;18306;40.960;14.836;2022-10-30T15:10:33;18.00;99.90
31725;DHT22;18306;40.960;14.836;2022-10-30T15:13:21;18.00;99.90
31725;DHT22;18306;40.960;14.836;2022-10-30T15:16:03;17.80;99.90
31725;DHT22;18306;40.960;14.836;2022-10-30T15:18:33;17.70;99.90
31725;DHT22;18306;40.960;14.836;2022-10-30T15:21:13;17.70;99.90
31725;DHT22;18306;40.960;14.836;2022-10-30T15:23:56;17.60;99.90
31725;DHT22;18306;40.960;14.836;2022-10-30T15:26:36;17.50;99.90
31725;DHT22;18306;40.960;14.836;2022-10-30T15:29:17;17.70;99.90
31725;DHT22;18306;40.960;14.836;2022-10-30T15:32:15;18.00;99.90
31725;DHT22;18306;40.960;14.836;2022-10-30T15:34:59;18.00;99.90
31725;DHT22;18306;40.960;14.836;2022-10-30T15:37:33;17.80;99.90
31725;DHT22;18306;40.960;14.836;2022-10-30T15:40:24;17.60;99.90
31725;DHT22;18306;40.960;14.836;2022-10-30T15:43:00;17.30;99.90
31725;DHT22;18306;40.960;14.836;2022-10-30T15:45:36;17.10;99.90
31725;DHT22;18306;40.960;14.836;2022-10-30T15:50:33;16.90;99.90
31725;DHT22;18306;40.960;14.836;2022-10-30T15:53:19;16.80;99.90
31725;DHT22;18306;40.960;14.836;2022-10-30T15:55:48;16.70;99.90
31725;DHT22;18306;40.960;14.836;2022-10-30T15:58:22;16.50;99.90
31725;DHT22;18306;40.960;14.836;2022-10-30T16:00:58;16.50;99.90
31725;DHT22;18306;40.960;14.836;2022-10-30T16:03:29;16.30;99.90
31725;DHT22;18306;40.960;14.836;2022-10-30T16:06:14;16.30;99.90
31725;DHT22;18306;40.960;14.836;2022-10-30T16:08:46;16.20;99.90
31725;DHT22;18306;40.960;14.836;2022-10-30T16:11:24;16.20;99.90
31725;DHT22;18306;40.960;14.836;2022-10-30T16:13:55;16.10;99.90
31725;DHT22;18306;40.960;14.836;2022-10-30T16:16:29;16.00;99.90
31725;DHT22;18306;40.960;14.836;2022-10-30T16:19:01;15.90;99.90
31725;DHT22;18306;40.960;14.836;2022-10-30T16:21:29;15.80;99.90
31725;DHT22;18306;40.960;14.836;2022-10-30T16:24:02;15.80;99.90
31725;DHT22;18306;40.960;14.836;2022-10-30T16:26:34;15.70;99.90
31725;DHT22;18306;40.960;14.836;2022-10-30T16:29:27;15.70;99.90
31725;DHT22;18306;40.960;14.836;2022-10-30T16:32:19;15.80;99.90
31725;DHT22;18306;40.960;14.836;2022-10-30T16:34:56;15.60;99.90
31725;DHT22;18306;40.960;14.836;2022-10-30T16:41:17;15.60;99.90
31725;DHT22;18306;40.960;14.836;2022-10-30T16:47:23;15.50;99.90
31725;DHT22;18306;40.960;14.836;2022-10-30T16:49:57;15.40;99.90
31725;DHT22;18306;40.960;14.836;2022-10-30T16:52:35;15.30;99.90
31725;DHT22;18306;40.960;14.836;2022-10-30T16:55:11;15.20;99.90
31725;DHT22;18306;40.960;14.836;2022-10-30T16:57:44;15.00;99.90
31725;DHT22;18306;40.960;14.836;2022-10-30T17:00:21;15.10;99.90
31725;DHT22;18306;40.960;14.836;2022-10-30T17:02:53;15.10;99.90
31725;DHT22;18306;40.960;14.836;2022-10-30T17:05:32;14.90;99.90
31725;DHT22;18306;40.960;14.836;2022-10-30T17:08:06;15.00;99.90
31725;DHT22;18306;40.960;14.836;2022-10-30T17:11:15;14.90;99.90
31725;DHT22;18306;40.960;14.836;2022-10-30T17:14:00;14.90;99.90
31725;DHT22;18306;40.960;14.836;2022-10-30T17:16:36;14.70;99.90
31725;DHT22;18306;40.960;14.836;2022-10-30T17:22:06;14.60;99.90
31725;DHT22;18306;40.960;14.836;2022-10-30T17:24:44;14.70;99.90
31725;DHT22;18306;40.960;14.836;2022-10-30T17:27:45;14.60;99.90
31725;DHT22;18306;40.960;14.836;2022-10-30T17:30:41;14.60;99.90
31725;DHT22;18306;40.960;14.836;2022-10-30T17:36:08;14.60;99.90
31725;DHT22;18306;40.960;14.836;2022-10-30T17:38:41;14.60;99.90
31725;DHT22;18306;40.960;14.836;2022-10-30T17:41:20;14.60;99.90
31725;DHT22;18306;40.960;14.836;2022-10-30T17:43:55;14.40;99.90
31725;DHT22;18306;40.960;14.836;2022-10-30T17:46:24;14.40;99.90
31725;DHT22;18306;40.960;14.836;2022-10-30T17:48:53;14.30;99.90
31725;DHT22;18306;40.960;14.836;2022-10-30T17:51:27;14.30;99.90
31725;DHT22;18306;40.960;14.836;2022-10-30T17:53:58;14.40;99.90
31725;DHT22;18306;40.960;14.836;2022-10-30T17:56:32;14.30;99.90
31725;DHT22;18306;40.960;14.836;2022-10-30T17:59:00;14.10;99.90
31725;DHT22;18306;40.960;14.836;2022-10-30T18:01:35;14.30;99.90
31725;DHT22;18306;40.960;14.836;2022-10-30T18:04:16;14.20;99.90
31725;DHT22;18306;40.960;14.836;2022-10-30T18:06:52;14.10;99.90
31725;DHT22;18306;40.960;14.836;2022-10-30T18:09:23;14.20;99.90
31725;DHT22;18306;40.960;14.836;2022-10-30T18:11:55;14.10;99.90
31725;DHT22;18306;40.960;14.836;2022-10-30T18:14:24;14.10;99.90
31725;DHT22;18306;40.960;14.836;2022-10-30T18:16:53;14.10;99.90
31725;DHT22;18306;40.960;14.836;2022-10-30T18:19:23;14.20;99.90
31725;DHT22;18306;40.960;14.836;2022-10-30T18:21:54;14.10;99.90
31725;DHT22;18306;40.960;14.836;2022-10-30T18:24:30;14.10;99.90
31725;DHT22;18306;40.960;14.836;2022-10-30T18:27:00;14.00;99.90
31725;DHT22;18306;40.960;14.836;2022-10-30T18:29:31;14.00;99.90
31725;DHT22;18306;40.960;14.836;2022-10-30T18:32:00;14.00;99.90
31725;DHT22;18306;40.960;14.836;2022-10-30T18:34:30;13.90;99.90